Terminal Aerodrome Forecast
Issued by NWS

Home | Current Version | Previous Version | Text Only | Print | Product List | Glossary On
Versions: 1 2 3 4 5 6 7 8 9 10 11 12 13 14 15 16 17 18 19 20
000
FTUS41 KBGM 221700
TAFELM
TAF
KELM 221730Z 2218/2318 22006KT P6SM BKN035
     FM230000 VRB02KT P6SM SCT035
      TEMPO 2309/2312 4SM BR
     FM231400 25010KT P6SM BKN040=

USA.gov is the U.S. government's official web portal to all federal, state and local government web resources and services.